sensor_id;sensor_type;location;lat;lon;timestamp;temperature;humidity
4097;DHT22;2062;50.694;7.246;2023-02-28T00:00:30;-1.00;43.30
4097;DHT22;2062;50.694;7.246;2023-02-28T00:02:57;-1.10;44.00
4097;DHT22;2062;50.694;7.246;2023-02-28T00:05:26;-1.10;43.60
4097;DHT22;2062;50.694;7.246;2023-02-28T00:07:53;-1.10;43.60
4097;DHT22;2062;50.694;7.246;2023-02-28T00:10:21;-1.10;43.80
4097;DHT22;2062;50.694;7.246;2023-02-28T00:12:51;-1.10;43.90
4097;DHT22;2062;50.694;7.246;2023-02-28T00:15:18;-1.10;44.50
4097;DHT22;2062;50.694;7.246;2023-02-28T00:17:46;-1.20;43.90
4097;DHT22;2062;50.694;7.246;2023-02-28T00:20:13;-1.20;44.00
4097;DHT22;2062;50.694;7.246;2023-02-28T00:22:41;-1.20;44.10
4097;DHT22;2062;50.694;7.246;2023-02-28T00:25:09;-1.20;44.30
4097;DHT22;2062;50.694;7.246;2023-02-28T00:27:38;-1.20;44.30
4097;DHT22;2062;50.694;7.246;2023-02-28T00:30:09;-1.20;44.30
4097;DHT22;2062;50.694;7.246;2023-02-28T00:32:36;-1.20;44.60
4097;DHT22;2062;50.694;7.246;2023-02-28T00:35:04;-1.20;44.40
4097;DHT22;2062;50.694;7.246;2023-02-28T00:37:31;-1.20;44.30
4097;DHT22;2062;50.694;7.246;2023-02-28T00:39:58;-1.20;44.50
4097;DHT22;2062;50.694;7.246;2023-02-28T00:42:25;-1.30;44.70
4097;DHT22;2062;50.694;7.246;2023-02-28T00:44:52;-1.20;44.80
4097;DHT22;2062;50.694;7.246;2023-02-28T00:47:20;-1.20;45.20
4097;DHT22;2062;50.694;7.246;2023-02-28T00:49:47;-1.20;44.80
4097;DHT22;2062;50.694;7.246;2023-02-28T00:52:14;-1.20;45.60
4097;DHT22;2062;50.694;7.246;2023-02-28T00:54:41;-1.20;44.80
4097;DHT22;2062;50.694;7.246;2023-02-28T00:57:07;-1.20;45.10
4097;DHT22;2062;50.694;7.246;2023-02-28T00:59:34;-1.20;45.40
4097;DHT22;2062;50.694;7.246;2023-02-28T01:02:01;-1.20;45.20
4097;DHT22;2062;50.694;7.246;2023-02-28T01:04:30;-1.20;44.90
4097;DHT22;2062;50.694;7.246;2023-02-28T01:06:57;-1.20;44.80
4097;DHT22;2062;50.694;7.246;2023-02-28T01:09:23;-1.20;45.10
4097;DHT22;2062;50.694;7.246;2023-02-28T01:11:50;-1.20;45.60
4097;DHT22;2062;50.694;7.246;2023-02-28T01:14:17;-1.20;45.20
4097;DHT22;2062;50.694;7.246;2023-02-28T01:16:44;-1.20;45.00
4097;DHT22;2062;50.694;7.246;2023-02-28T01:19:11;-1.20;45.20
4097;DHT22;2062;50.694;7.246;2023-02-28T01:21:40;-1.20;45.30
4097;DHT22;2062;50.694;7.246;2023-02-28T01:24:07;-1.30;45.20
4097;DHT22;2062;50.694;7.246;2023-02-28T01:26:34;-1.30;45.40
4097;DHT22;2062;50.694;7.246;2023-02-28T01:29:01;-1.20;45.00
4097;DHT22;2062;50.694;7.246;2023-02-28T01:31:27;-1.30;45.20
4097;DHT22;2062;50.694;7.246;2023-02-28T01:33:54;-1.30;44.80
4097;DHT22;2062;50.694;7.246;2023-02-28T01:36:23;-1.30;44.70
4097;DHT22;2062;50.694;7.246;2023-02-28T01:38:52;-1.30;44.80
4097;DHT22;2062;50.694;7.246;2023-02-28T01:41:21;-1.30;44.70
4097;DHT22;2062;50.694;7.246;2023-02-28T01:44:00;-1.30;44.90
4097;DHT22;2062;50.694;7.246;2023-02-28T01:46:30;-1.30;45.00
4097;DHT22;2062;50.694;7.246;2023-02-28T01:49:02;-1.30;45.20
4097;DHT22;2062;50.694;7.246;2023-02-28T01:51:34;-1.40;45.50
4097;DHT22;2062;50.694;7.246;2023-02-28T01:54:09;-1.40;45.60
4097;DHT22;2062;50.694;7.246;2023-02-28T01:56:43;-1.50;45.20
4097;DHT22;2062;50.694;7.246;2023-02-28T01:59:12;-1.50;45.50
4097;DHT22;2062;50.694;7.246;2023-02-28T02:01:40;-1.50;45.50
4097;DHT22;2062;50.694;7.246;2023-02-28T02:04:08;-1.50;45.60
4097;DHT22;2062;50.694;7.246;2023-02-28T02:06:38;-1.50;45.80
4097;DHT22;2062;50.694;7.246;2023-02-28T02:09:07;-1.60;46.00
4097;DHT22;2062;50.694;7.246;2023-02-28T02:11:34;-1.60;45.70
4097;DHT22;2062;50.694;7.246;2023-02-28T02:14:21;-1.60;46.20
4097;DHT22;2062;50.694;7.246;2023-02-28T02:16:59;-1.60;46.10
4097;DHT22;2062;50.694;7.246;2023-02-28T02:20:05;-1.70;46.30
4097;DHT22;2062;50.694;7.246;2023-02-28T02:22:54;-1.70;46.70
4097;DHT22;2062;50.694;7.246;2023-02-28T02:25:33;-1.80;46.30
4097;DHT22;2062;50.694;7.246;2023-02-28T02:28:47;-1.70;46.40
4097;DHT22;2062;50.694;7.246;2023-02-28T02:31:42;-1.80;46.40
4097;DHT22;2062;50.694;7.246;2023-02-28T02:34:26;-1.80;46.70
4097;DHT22;2062;50.694;7.246;2023-02-28T02:37:00;-1.80;47.10
4097;DHT22;2062;50.694;7.246;2023-02-28T02:39:33;-1.80;47.10
4097;DHT22;2062;50.694;7.246;2023-02-28T02:42:14;-1.80;46.50
4097;DHT22;2062;50.694;7.246;2023-02-28T02:44:47;-1.90;46.30
4097;DHT22;2062;50.694;7.246;2023-02-28T02:47:17;-1.90;46.90
4097;DHT22;2062;50.694;7.246;2023-02-28T02:49:48;-1.90;46.40
4097;DHT22;2062;50.694;7.246;2023-02-28T02:52:20;-1.90;46.60
4097;DHT22;2062;50.694;7.246;2023-02-28T02:54:51;-1.90;47.30
4097;DHT22;2062;50.694;7.246;2023-02-28T02:57:24;-1.90;47.10
4097;DHT22;2062;50.694;7.246;2023-02-28T02:59:54;-1.90;47.10
4097;DHT22;2062;50.694;7.246;2023-02-28T03:02:22;-1.90;47.00
4097;DHT22;2062;50.694;7.246;2023-02-28T03:04:53;-2.00;47.10
4097;DHT22;2062;50.694;7.246;2023-02-28T03:07:26;-1.90;47.00
4097;DHT22;2062;50.694;7.246;2023-02-28T03:09:54;-2.00;47.00
4097;DHT22;2062;50.694;7.246;2023-02-28T03:12:24;-2.00;46.90
4097;DHT22;2062;50.694;7.246;2023-02-28T03:15:06;-1.90;46.80
4097;DHT22;2062;50.694;7.246;2023-02-28T03:17:45;-1.90;46.80
4097;DHT22;2062;50.694;7.246;2023-02-28T03:20:22;-2.00;47.40
4097;DHT22;2062;50.694;7.246;2023-02-28T03:23:02;-2.00;46.80
4097;DHT22;2062;50.694;7.246;2023-02-28T03:25:35;-2.00;47.30
4097;DHT22;2062;50.694;7.246;2023-02-28T03:28:08;-2.00;47.10
4097;DHT22;2062;50.694;7.246;2023-02-28T03:30:42;-2.00;46.70
4097;DHT22;2062;50.694;7.246;2023-02-28T03:33:15;-2.00;46.70
4097;DHT22;2062;50.694;7.246;2023-02-28T03:35:45;-2.00;46.60
4097;DHT22;2062;50.694;7.246;2023-02-28T03:38:17;-2.00;46.80
4097;DHT22;2062;50.694;7.246;2023-02-28T03:40:48;-2.00;46.60
4097;DHT22;2062;50.694;7.246;2023-02-28T03:43:20;-2.00;47.20
4097;DHT22;2062;50.694;7.246;2023-02-28T03:45:50;-2.00;47.30
4097;DHT22;2062;50.694;7.246;2023-02-28T03:48:20;-2.00;47.20
4097;DHT22;2062;50.694;7.246;2023-02-28T03:50:53;-2.00;46.90
4097;DHT22;2062;50.694;7.246;2023-02-28T03:53:25;-2.00;46.40
4097;DHT22;2062;50.694;7.246;2023-02-28T03:55:56;-2.00;46.70
4097;DHT22;2062;50.694;7.246;2023-02-28T03:58:28;-2.00;47.40
4097;DHT22;2062;50.694;7.246;2023-02-28T04:01:01;-1.90;47.20
4097;DHT22;2062;50.694;7.246;2023-02-28T04:03:34;-2.00;47.10
4097;DHT22;2062;50.694;7.246;2023-02-28T04:06:02;-2.00;46.80
4097;DHT22;2062;50.694;7.246;2023-02-28T04:08:30;-2.10;46.70
4097;DHT22;2062;50.694;7.246;2023-02-28T04:11:01;-2.00;46.90
4097;DHT22;2062;50.694;7.246;2023-02-28T04:13:31;-2.00;46.60
4097;DHT22;2062;50.694;7.246;2023-02-28T04:15:58;-2.10;47.10
4097;DHT22;2062;50.694;7.246;2023-02-28T04:18:24;-2.00;47.10
4097;DHT22;2062;50.694;7.246;2023-02-28T04:20:51;-2.00;47.20
4097;DHT22;2062;50.694;7.246;2023-02-28T04:23:19;-2.10;46.80
4097;DHT22;2062;50.694;7.246;2023-02-28T04:25:46;-2.10;46.90
4097;DHT22;2062;50.694;7.246;2023-02-28T04:28:13;-2.10;47.00
4097;DHT22;2062;50.694;7.246;2023-02-28T04:30:40;-2.10;47.00
4097;DHT22;2062;50.694;7.246;2023-02-28T04:33:07;-2.10;46.80
4097;DHT22;2062;50.694;7.246;2023-02-28T04:35:33;-2.10;46.70
4097;DHT22;2062;50.694;7.246;2023-02-28T04:38:00;-2.10;47.00
4097;DHT22;2062;50.694;7.246;2023-02-28T04:40:28;-2.10;46.90
4097;DHT22;2062;50.694;7.246;2023-02-28T04:42:55;-2.10;47.00
4097;DHT22;2062;50.694;7.246;2023-02-28T04:45:22;-2.10;46.90
4097;DHT22;2062;50.694;7.246;2023-02-28T04:47:49;-2.20;47.10
4097;DHT22;2062;50.694;7.246;2023-02-28T04:50:16;-2.20;47.10
4097;DHT22;2062;50.694;7.246;2023-02-28T04:52:43;-2.20;46.90
4097;DHT22;2062;50.694;7.246;2023-02-28T04:55:10;-2.20;46.90
4097;DHT22;2062;50.694;7.246;2023-02-28T04:57:38;-2.20;47.10
4097;DHT22;2062;50.694;7.246;2023-02-28T05:00:05;-2.20;46.90
4097;DHT22;2062;50.694;7.246;2023-02-28T05:02:37;-2.30;47.00
4097;DHT22;2062;50.694;7.246;2023-02-28T05:05:04;-2.30;47.10
4097;DHT22;2062;50.694;7.246;2023-02-28T05:07:31;-2.30;46.80
4097;DHT22;2062;50.694;7.246;2023-02-28T05:09:57;-2.30;47.00
4097;DHT22;2062;50.694;7.246;2023-02-28T05:12:24;-2.30;46.80
4097;DHT22;2062;50.694;7.246;2023-02-28T05:14:53;-2.30;46.90
4097;DHT22;2062;50.694;7.246;2023-02-28T05:17:20;-2.40;47.20
4097;DHT22;2062;50.694;7.246;2023-02-28T05:19:46;-2.40;47.20
4097;DHT22;2062;50.694;7.246;2023-02-28T05:22:14;-2.40;47.00
4097;DHT22;2062;50.694;7.246;2023-02-28T05:24:41;-2.50;46.90
4097;DHT22;2062;50.694;7.246;2023-02-28T05:27:09;-2.50;47.00
4097;DHT22;2062;50.694;7.246;2023-02-28T05:29:36;-2.50;47.20
4097;DHT22;2062;50.694;7.246;2023-02-28T05:32:09;-2.50;47.10
4097;DHT22;2062;50.694;7.246;2023-02-28T05:34:37;-2.50;47.20
4097;DHT22;2062;50.694;7.246;2023-02-28T05:37:04;-2.50;47.30
4097;DHT22;2062;50.694;7.246;2023-02-28T05:39:31;-2.50;47.20
4097;DHT22;2062;50.694;7.246;2023-02-28T05:41:58;-2.60;47.20
4097;DHT22;2062;50.694;7.246;2023-02-28T05:44:25;-2.60;47.10
4097;DHT22;2062;50.694;7.246;2023-02-28T05:46:52;-2.60;47.90
4097;DHT22;2062;50.694;7.246;2023-02-28T05:49:20;-2.60;47.20
4097;DHT22;2062;50.694;7.246;2023-02-28T05:51:47;-2.70;48.10
4097;DHT22;2062;50.694;7.246;2023-02-28T05:54:14;-2.60;47.60
4097;DHT22;2062;50.694;7.246;2023-02-28T05:56:41;-2.60;47.70
4097;DHT22;2062;50.694;7.246;2023-02-28T05:59:09;-2.70;47.50
4097;DHT22;2062;50.694;7.246;2023-02-28T06:04:24;-2.70;47.30
4097;DHT22;2062;50.694;7.246;2023-02-28T06:06:51;-2.70;47.90
4097;DHT22;2062;50.694;7.246;2023-02-28T06:09:19;-2.80;47.40
4097;DHT22;2062;50.694;7.246;2023-02-28T06:11:45;-2.80;47.50
4097;DHT22;2062;50.694;7.246;2023-02-28T06:14:14;-2.80;47.60
4097;DHT22;2062;50.694;7.246;2023-02-28T06:16:42;-2.80;47.60
4097;DHT22;2062;50.694;7.246;2023-02-28T06:19:09;-2.80;47.80
4097;DHT22;2062;50.694;7.246;2023-02-28T06:21:37;-2.80;47.70
4097;DHT22;2062;50.694;7.246;2023-02-28T06:24:05;-2.90;47.90
4097;DHT22;2062;50.694;7.246;2023-02-28T06:26:32;-2.90;48.30
4097;DHT22;2062;50.694;7.246;2023-02-28T06:28:58;-2.90;48.40
4097;DHT22;2062;50.694;7.246;2023-02-28T06:31:27;-2.90;47.90
4097;DHT22;2062;50.694;7.246;2023-02-28T06:33:55;-2.90;47.90
4097;DHT22;2062;50.694;7.246;2023-02-28T06:36:22;-2.90;48.30
4097;DHT22;2062;50.694;7.246;2023-02-28T06:38:50;-2.90;47.70
4097;DHT22;2062;50.694;7.246;2023-02-28T06:41:20;-2.90;47.60
4097;DHT22;2062;50.694;7.246;2023-02-28T06:43:47;-2.90;47.40
4097;DHT22;2062;50.694;7.246;2023-02-28T06:46:14;-2.90;47.60
4097;DHT22;2062;50.694;7.246;2023-02-28T06:48:42;-2.90;47.40
4097;DHT22;2062;50.694;7.246;2023-02-28T06:51:10;-3.00;47.30
4097;DHT22;2062;50.694;7.246;2023-02-28T06:53:39;-3.00;47.80
4097;DHT22;2062;50.694;7.246;2023-02-28T06:56:09;-3.00;47.80
4097;DHT22;2062;50.694;7.246;2023-02-28T06:58:36;-3.00;47.40
4097;DHT22;2062;50.694;7.246;2023-02-28T07:01:05;-3.00;47.40
4097;DHT22;2062;50.694;7.246;2023-02-28T07:03:32;-3.00;47.70
4097;DHT22;2062;50.694;7.246;2023-02-28T07:05:59;-3.00;47.40
4097;DHT22;2062;50.694;7.246;2023-02-28T07:08:26;-3.00;47.20
4097;DHT22;2062;50.694;7.246;2023-02-28T07:10:53;-3.00;47.50
4097;DHT22;2062;50.694;7.246;2023-02-28T07:13:22;-3.00;47.40
4097;DHT22;2062;50.694;7.246;2023-02-28T07:15:56;-2.90;47.70
4097;DHT22;2062;50.694;7.246;2023-02-28T07:18:23;-3.00;47.90
4097;DHT22;2062;50.694;7.246;2023-02-28T07:20:50;-3.00;47.80
4097;DHT22;2062;50.694;7.246;2023-02-28T07:23:17;-3.00;47.60
4097;DHT22;2062;50.694;7.246;2023-02-28T07:25:44;-3.00;47.20
4097;DHT22;2062;50.694;7.246;2023-02-28T07:28:12;-2.90;46.90
4097;DHT22;2062;50.694;7.246;2023-02-28T07:30:41;-2.90;46.90
4097;DHT22;2062;50.694;7.246;2023-02-28T07:33:08;-2.80;47.40
4097;DHT22;2062;50.694;7.246;2023-02-28T07:35:35;-2.70;47.10
4097;DHT22;2062;50.694;7.246;2023-02-28T07:38:02;-2.60;46.80
4097;DHT22;2062;50.694;7.246;2023-02-28T07:40:29;-2.40;46.90
4097;DHT22;2062;50.694;7.246;2023-02-28T07:42:56;-2.20;46.60
4097;DHT22;2062;50.694;7.246;2023-02-28T07:45:25;-2.10;46.80
4097;DHT22;2062;50.694;7.246;2023-02-28T07:47:53;-1.80;47.20
4097;DHT22;2062;50.694;7.246;2023-02-28T07:50:20;-1.60;48.10
4097;DHT22;2062;50.694;7.246;2023-02-28T07:52:47;-1.40;48.40
4097;DHT22;2062;50.694;7.246;2023-02-28T07:55:13;-1.10;49.40
4097;DHT22;2062;50.694;7.246;2023-02-28T07:57:42;-0.90;49.10
4097;DHT22;2062;50.694;7.246;2023-02-28T08:00:11;-0.50;49.60
4097;DHT22;2062;50.694;7.246;2023-02-28T08:02:39;-0.30;50.20
4097;DHT22;2062;50.694;7.246;2023-02-28T08:05:08;0.00;50.10
4097;DHT22;2062;50.694;7.246;2023-02-28T08:07:35;0.30;49.70
4097;DHT22;2062;50.694;7.246;2023-02-28T08:10:02;0.70;50.20
4097;DHT22;2062;50.694;7.246;2023-02-28T08:12:31;1.00;50.20
4097;DHT22;2062;50.694;7.246;2023-02-28T08:14:58;1.30;49.90
4097;DHT22;2062;50.694;7.246;2023-02-28T08:17:25;1.60;49.60
4097;DHT22;2062;50.694;7.246;2023-02-28T08:19:51;1.90;48.90
4097;DHT22;2062;50.694;7.246;2023-02-28T08:22:20;2.20;47.90
4097;DHT22;2062;50.694;7.246;2023-02-28T08:24:46;2.50;47.70
4097;DHT22;2062;50.694;7.246;2023-02-28T08:27:14;2.70;47.50
4097;DHT22;2062;50.694;7.246;2023-02-28T08:29:41;2.90;47.20
4097;DHT22;2062;50.694;7.246;2023-02-28T08:32:08;3.20;47.30
4097;DHT22;2062;50.694;7.246;2023-02-28T08:34:35;3.50;47.20
4097;DHT22;2062;50.694;7.246;2023-02-28T08:37:02;3.70;46.70
4097;DHT22;2062;50.694;7.246;2023-02-28T08:39:30;4.00;46.10
4097;DHT22;2062;50.694;7.246;2023-02-28T08:41:57;4.20;45.20
4097;DHT22;2062;50.694;7.246;2023-02-28T08:44:24;4.50;44.80
4097;DHT22;2062;50.694;7.246;2023-02-28T08:46:51;4.60;44.50
4097;DHT22;2062;50.694;7.246;2023-02-28T08:49:18;4.80;44.50
4097;DHT22;2062;50.694;7.246;2023-02-28T08:51:45;5.00;44.00
4097;DHT22;2062;50.694;7.246;2023-02-28T08:54:12;5.20;43.70
4097;DHT22;2062;50.694;7.246;2023-02-28T08:56:42;5.40;43.60
4097;DHT22;2062;50.694;7.246;2023-02-28T08:59:09;5.60;43.60
4097;DHT22;2062;50.694;7.246;2023-02-28T09:01:36;5.80;43.60
4097;DHT22;2062;50.694;7.246;2023-02-28T09:04:03;6.00;42.70
4097;DHT22;2062;50.694;7.246;2023-02-28T09:06:30;6.20;42.10
4097;DHT22;2062;50.694;7.246;2023-02-28T09:08:58;6.30;41.20
4097;DHT22;2062;50.694;7.246;2023-02-28T09:11:27;6.50;41.10
4097;DHT22;2062;50.694;7.246;2023-02-28T09:13:55;6.60;41.00
4097;DHT22;2062;50.694;7.246;2023-02-28T09:16:22;6.70;39.90
4097;DHT22;2062;50.694;7.246;2023-02-28T09:18:49;6.80;38.40
4097;DHT22;2062;50.694;7.246;2023-02-28T09:21:17;6.80;38.60
4097;DHT22;2062;50.694;7.246;2023-02-28T09:23:46;6.80;37.80
4097;DHT22;2062;50.694;7.246;2023-02-28T09:26:14;6.80;37.50
4097;DHT22;2062;50.694;7.246;2023-02-28T09:28:41;6.70;36.80
4097;DHT22;2062;50.694;7.246;2023-02-28T09:31:12;6.60;36.20
4097;DHT22;2062;50.694;7.246;2023-02-28T09:33:40;6.50;36.20
4097;DHT22;2062;50.694;7.246;2023-02-28T09:36:07;6.50;36.30
4097;DHT22;2062;50.694;7.246;2023-02-28T09:38:34;6.60;36.20
4097;DHT22;2062;50.694;7.246;2023-02-28T09:41:03;6.40;36.70
4097;DHT22;2062;50.694;7.246;2023-02-28T09:43:34;6.40;37.10
4097;DHT22;2062;50.694;7.246;2023-02-28T09:46:07;6.40;37.80
4097;DHT22;2062;50.694;7.246;2023-02-28T09:48:41;6.50;38.90
4097;DHT22;2062;50.694;7.246;2023-02-28T09:51:15;6.60;38.70
4097;DHT22;2062;50.694;7.246;2023-02-28T09:53:50;6.80;38.50
4097;DHT22;2062;50.694;7.246;2023-02-28T09:56:20;6.90;38.90
4097;DHT22;2062;50.694;7.246;2023-02-28T09:58:54;7.00;39.60
4097;DHT22;2062;50.694;7.246;2023-02-28T10:01:27;7.20;39.50
4097;DHT22;2062;50.694;7.246;2023-02-28T10:04:00;7.40;38.60
4097;DHT22;2062;50.694;7.246;2023-02-28T10:06:29;7.50;38.10
4097;DHT22;2062;50.694;7.246;2023-02-28T10:09:02;7.60;38.50
4097;DHT22;2062;50.694;7.246;2023-02-28T10:11:32;7.70;37.40
4097;DHT22;2062;50.694;7.246;2023-02-28T10:14:02;7.80;36.30
4097;DHT22;2062;50.694;7.246;2023-02-28T10:16:34;7.80;36.10
4097;DHT22;2062;50.694;7.246;2023-02-28T10:19:06;7.90;35.60
4097;DHT22;2062;50.694;7.246;2023-02-28T10:21:41;7.90;35.90
4097;DHT22;2062;50.694;7.246;2023-02-28T10:24:19;7.90;35.50
4097;DHT22;2062;50.694;7.246;2023-02-28T10:26:47;7.90;35.00
4097;DHT22;2062;50.694;7.246;2023-02-28T10:29:15;7.90;35.10
4097;DHT22;2062;50.694;7.246;2023-02-28T10:31:42;7.90;34.60
4097;DHT22;2062;50.694;7.246;2023-02-28T10:34:12;7.90;35.40
4097;DHT22;2062;50.694;7.246;2023-02-28T10:36:40;7.90;35.40
4097;DHT22;2062;50.694;7.246;2023-02-28T10:39:35;7.90;36.00
4097;DHT22;2062;50.694;7.246;2023-02-28T10:42:02;7.90;36.30
4097;DHT22;2062;50.694;7.246;2023-02-28T10:44:28;7.90;35.60
4097;DHT22;2062;50.694;7.246;2023-02-28T10:46:56;8.00;35.60
4097;DHT22;2062;50.694;7.246;2023-02-28T10:49:26;8.00;35.10
4097;DHT22;2062;50.694;7.246;2023-02-28T10:51:55;8.00;34.40
4097;DHT22;2062;50.694;7.246;2023-02-28T10:54:26;7.90;34.80
4097;DHT22;2062;50.694;7.246;2023-02-28T10:57:17;7.90;33.80
4097;DHT22;2062;50.694;7.246;2023-02-28T10:59:45;7.80;33.50
4097;DHT22;2062;50.694;7.246;2023-02-28T11:02:34;7.80;33.70
4097;DHT22;2062;50.694;7.246;2023-02-28T11:05:23;7.70;35.00
4097;DHT22;2062;50.694;7.246;2023-02-28T11:07:51;7.70;34.70
4097;DHT22;2062;50.694;7.246;2023-02-28T11:10:20;7.70;34.60
4097;DHT22;2062;50.694;7.246;2023-02-28T11:12:48;7.70;34.20
4097;DHT22;2062;50.694;7.246;2023-02-28T11:15:22;7.70;34.40
4097;DHT22;2062;50.694;7.246;2023-02-28T11:17:57;7.70;34.70
4097;DHT22;2062;50.694;7.246;2023-02-28T11:20:28;7.80;35.30
4097;DHT22;2062;50.694;7.246;2023-02-28T11:22:56;7.80;35.00
4097;DHT22;2062;50.694;7.246;2023-02-28T11:25:25;7.90;35.20
4097;DHT22;2062;50.694;7.246;2023-02-28T11:27:54;7.90;35.30
4097;DHT22;2062;50.694;7.246;2023-02-28T11:30:27;8.00;34.80
4097;DHT22;2062;50.694;7.246;2023-02-28T11:32:54;8.00;34.60
4097;DHT22;2062;50.694;7.246;2023-02-28T11:35:26;8.10;35.30
4097;DHT22;2062;50.694;7.246;2023-02-28T11:37:55;8.10;34.70
4097;DHT22;2062;50.694;7.246;2023-02-28T11:40:30;8.10;33.50
4097;DHT22;2062;50.694;7.246;2023-02-28T11:43:04;8.10;33.80
4097;DHT22;2062;50.694;7.246;2023-02-28T11:45:47;8.10;34.30
4097;DHT22;2062;50.694;7.246;2023-02-28T11:48:21;8.10;34.10
4097;DHT22;2062;50.694;7.246;2023-02-28T11:50:58;8.20;33.70
4097;DHT22;2062;50.694;7.246;2023-02-28T11:53:39;8.20;33.80
4097;DHT22;2062;50.694;7.246;2023-02-28T11:56:16;8.20;33.50
4097;DHT22;2062;50.694;7.246;2023-02-28T11:58:53;8.30;33.60
4097;DHT22;2062;50.694;7.246;2023-02-28T12:01:40;8.30;34.20
4097;DHT22;2062;50.694;7.246;2023-02-28T12:04:19;8.40;34.10
4097;DHT22;2062;50.694;7.246;2023-02-28T12:06:55;8.50;34.20
4097;DHT22;2062;50.694;7.246;2023-02-28T12:09:38;8.50;33.50
4097;DHT22;2062;50.694;7.246;2023-02-28T12:12:15;8.60;33.90
4097;DHT22;2062;50.694;7.246;2023-02-28T12:17:44;8.80;34.00
4097;DHT22;2062;50.694;7.246;2023-02-28T12:20:22;8.90;32.70
4097;DHT22;2062;50.694;7.246;2023-02-28T12:23:06;8.90;33.90
4097;DHT22;2062;50.694;7.246;2023-02-28T12:25:50;9.00;34.00
4097;DHT22;2062;50.694;7.246;2023-02-28T12:28:24;9.20;34.00
4097;DHT22;2062;50.694;7.246;2023-02-28T12:30:58;9.30;33.60
4097;DHT22;2062;50.694;7.246;2023-02-28T12:33:31;9.40;33.80
4097;DHT22;2062;50.694;7.246;2023-02-28T12:36:03;9.50;33.70
4097;DHT22;2062;50.694;7.246;2023-02-28T12:38:37;9.50;33.30
4097;DHT22;2062;50.694;7.246;2023-02-28T12:41:10;9.60;32.50
4097;DHT22;2062;50.694;7.246;2023-02-28T12:43:42;9.70;32.90
4097;DHT22;2062;50.694;7.246;2023-02-28T12:46:14;9.60;32.70
4097;DHT22;2062;50.694;7.246;2023-02-28T12:48:46;9.80;32.50
4097;DHT22;2062;50.694;7.246;2023-02-28T12:51:13;9.80;31.30
4097;DHT22;2062;50.694;7.246;2023-02-28T12:53:52;9.90;31.80
4097;DHT22;2062;50.694;7.246;2023-02-28T12:56:29;9.90;31.70
4097;DHT22;2062;50.694;7.246;2023-02-28T12:59:00;9.90;31.00
4097;DHT22;2062;50.694;7.246;2023-02-28T13:02:02;9.90;31.20
4097;DHT22;2062;50.694;7.246;2023-02-28T13:08:17;9.90;31.90
4097;DHT22;2062;50.694;7.246;2023-02-28T13:10:50;10.00;31.60
4097;DHT22;2062;50.694;7.246;2023-02-28T13:13:22;10.00;31.00
4097;DHT22;2062;50.694;7.246;2023-02-28T13:16:02;10.00;31.00
4097;DHT22;2062;50.694;7.246;2023-02-28T13:18:32;10.00;31.10
4097;DHT22;2062;50.694;7.246;2023-02-28T13:21:01;10.10;32.00
4097;DHT22;2062;50.694;7.246;2023-02-28T13:23:55;10.10;30.70
4097;DHT22;2062;50.694;7.246;2023-02-28T13:29:40;10.20;32.40
4097;DHT22;2062;50.694;7.246;2023-02-28T13:32:34;10.30;32.10
4097;DHT22;2062;50.694;7.246;2023-02-28T13:35:36;10.40;32.30
4097;DHT22;2062;50.694;7.246;2023-02-28T13:44:02;10.60;32.50
4097;DHT22;2062;50.694;7.246;2023-02-28T13:46:31;10.70;32.20
4097;DHT22;2062;50.694;7.246;2023-02-28T13:49:19;10.80;32.20
4097;DHT22;2062;50.694;7.246;2023-02-28T13:51:47;10.90;31.90
4097;DHT22;2062;50.694;7.246;2023-02-28T13:54:24;10.90;30.80
4097;DHT22;2062;50.694;7.246;2023-02-28T13:57:04;10.90;30.10
4097;DHT22;2062;50.694;7.246;2023-02-28T13:59:39;10.90;30.00
4097;DHT22;2062;50.694;7.246;2023-02-28T14:02:34;10.90;30.30
4097;DHT22;2062;50.694;7.246;2023-02-28T14:05:06;11.00;31.70
4097;DHT22;2062;50.694;7.246;2023-02-28T14:07:42;11.00;30.40
4097;DHT22;2062;50.694;7.246;2023-02-28T14:10:22;11.00;30.10
4097;DHT22;2062;50.694;7.246;2023-02-28T14:15:40;10.90;30.00
4097;DHT22;2062;50.694;7.246;2023-02-28T14:18:19;10.90;30.50
4097;DHT22;2062;50.694;7.246;2023-02-28T14:20:48;10.90;30.00
4097;DHT22;2062;50.694;7.246;2023-02-28T14:23:24;10.90;30.10
4097;DHT22;2062;50.694;7.246;2023-02-28T14:26:00;10.90;29.80
4097;DHT22;2062;50.694;7.246;2023-02-28T14:28:45;10.90;29.90
4097;DHT22;2062;50.694;7.246;2023-02-28T14:31:18;10.80;30.00
4097;DHT22;2062;50.694;7.246;2023-02-28T14:34:01;10.80;29.40
4097;DHT22;2062;50.694;7.246;2023-02-28T14:36:33;10.80;30.20
4097;DHT22;2062;50.694;7.246;2023-02-28T14:39:05;10.70;29.90
4097;DHT22;2062;50.694;7.246;2023-02-28T14:41:34;10.70;29.20
4097;DHT22;2062;50.694;7.246;2023-02-28T14:44:13;10.70;29.70
4097;DHT22;2062;50.694;7.246;2023-02-28T14:46:41;10.70;29.60
4097;DHT22;2062;50.694;7.246;2023-02-28T14:49:13;10.70;30.20
4097;DHT22;2062;50.694;7.246;2023-02-28T14:51:42;10.60;29.80
4097;DHT22;2062;50.694;7.246;2023-02-28T14:54:14;10.60;28.90
4097;DHT22;2062;50.694;7.246;2023-02-28T14:56:41;10.60;29.90
4097;DHT22;2062;50.694;7.246;2023-02-28T14:59:24;10.50;30.30
4097;DHT22;2062;50.694;7.246;2023-02-28T15:01:51;10.50;29.90
4097;DHT22;2062;50.694;7.246;2023-02-28T15:04:24;10.50;29.90
4097;DHT22;2062;50.694;7.246;2023-02-28T15:07:07;10.50;30.20
4097;DHT22;2062;50.694;7.246;2023-02-28T15:09:34;10.50;30.10
4097;DHT22;2062;50.694;7.246;2023-02-28T15:12:01;10.50;30.20
4097;DHT22;2062;50.694;7.246;2023-02-28T15:14:29;10.50;30.00
4097;DHT22;2062;50.694;7.246;2023-02-28T15:16:59;10.50;29.80
4097;DHT22;2062;50.694;7.246;2023-02-28T15:19:30;10.40;29.90
4097;DHT22;2062;50.694;7.246;2023-02-28T15:22:02;10.40;29.70
4097;DHT22;2062;50.694;7.246;2023-02-28T15:24:36;10.40;29.90
4097;DHT22;2062;50.694;7.246;2023-02-28T15:27:06;10.30;29.80
4097;DHT22;2062;50.694;7.246;2023-02-28T15:29:44;10.30;30.00
4097;DHT22;2062;50.694;7.246;2023-02-28T15:32:24;10.30;29.80
4097;DHT22;2062;50.694;7.246;2023-02-28T15:34:54;10.30;30.00
4097;DHT22;2062;50.694;7.246;2023-02-28T15:37:32;10.30;30.30
4097;DHT22;2062;50.694;7.246;2023-02-28T15:40:10;10.20;29.80
4097;DHT22;2062;50.694;7.246;2023-02-28T15:42:37;10.20;30.10
4097;DHT22;2062;50.694;7.246;2023-02-28T15:45:04;10.10;29.90
4097;DHT22;2062;50.694;7.246;2023-02-28T15:47:32;10.10;29.30
4097;DHT22;2062;50.694;7.246;2023-02-28T15:50:02;10.00;29.20
4097;DHT22;2062;50.694;7.246;2023-02-28T15:52:33;9.90;29.60
4097;DHT22;2062;50.694;7.246;2023-02-28T15:55:08;9.90;29.50
4097;DHT22;2062;50.694;7.246;2023-02-28T15:57:35;9.80;29.10
4097;DHT22;2062;50.694;7.246;2023-02-28T16:00:03;9.70;29.70
4097;DHT22;2062;50.694;7.246;2023-02-28T16:02:33;9.70;29.70
4097;DHT22;2062;50.694;7.246;2023-02-28T16:05:21;9.70;29.60
4097;DHT22;2062;50.694;7.246;2023-02-28T16:07:54;9.60;29.50
4097;DHT22;2062;50.694;7.246;2023-02-28T16:10:21;9.60;29.30
4097;DHT22;2062;50.694;7.246;2023-02-28T16:12:52;9.50;29.30
4097;DHT22;2062;50.694;7.246;2023-02-28T16:15:21;9.40;29.00
4097;DHT22;2062;50.694;7.246;2023-02-28T16:17:49;9.40;29.00
4097;DHT22;2062;50.694;7.246;2023-02-28T16:20:18;9.30;29.20
4097;DHT22;2062;50.694;7.246;2023-02-28T16:22:46;9.30;29.30
4097;DHT22;2062;50.694;7.246;2023-02-28T16:25:13;9.20;29.30
4097;DHT22;2062;50.694;7.246;2023-02-28T16:27:40;9.10;29.20
4097;DHT22;2062;50.694;7.246;2023-02-28T16:30:16;9.00;29.10
4097;DHT22;2062;50.694;7.246;2023-02-28T16:32:44;9.00;29.30
4097;DHT22;2062;50.694;7.246;2023-02-28T16:35:11;8.90;29.00
4097;DHT22;2062;50.694;7.246;2023-02-28T16:37:41;8.80;29.00
4097;DHT22;2062;50.694;7.246;2023-02-28T16:40:13;8.80;29.40
4097;DHT22;2062;50.694;7.246;2023-02-28T16:42:40;8.70;29.30
4097;DHT22;2062;50.694;7.246;2023-02-28T16:45:15;8.60;29.10
4097;DHT22;2062;50.694;7.246;2023-02-28T16:47:43;8.60;29.30
4097;DHT22;2062;50.694;7.246;2023-02-28T16:50:14;8.50;29.40
4097;DHT22;2062;50.694;7.246;2023-02-28T16:52:43;8.40;29.50